createdAt,value
2023-01-03T00:01:20.385Z,16.42
2023-01-03T00:03:48.572Z,17.85
2023-01-03T00:06:23.390Z,20.85
2023-01-03T00:08:51.941Z,18.15
2023-01-03T00:11:44.082Z,17.30
2023-01-03T00:14:19.711Z,14.52
2023-01-03T00:16:51.575Z,21.65
2023-01-03T00:19:20.768Z,17.00
2023-01-03T00:21:48.731Z,16.67
2023-01-03T00:24:17.049Z,13.50
2023-01-03T00:26:45.113Z,14.07
2023-01-03T00:29:13.659Z,17.67
2023-01-03T00:31:42.195Z,13.63
2023-01-03T00:34:10.796Z,14.82
2023-01-03T00:36:39.204Z,16.48
2023-01-03T00:39:06.979Z,17.85
2023-01-03T00:41:35.233Z,16.25
2023-01-03T00:44:03.491Z,16.35
2023-01-03T00:46:31.594Z,14.98
2023-01-03T00:48:59.344Z,14.38
2023-01-03T00:51:29.673Z,13.63
2023-01-03T00:54:01.248Z,14.18
2023-01-03T00:56:35.023Z,19.45
2023-01-03T00:59:03.918Z,15.88
2023-01-03T01:01:53.464Z,16.88
2023-01-03T01:04:21.555Z,15.52
2023-01-03T01:07:01.218Z,16.75
2023-01-03T01:09:32.542Z,13.50
2023-01-03T01:12:00.628Z,14.93
2023-01-03T01:14:30.159Z,13.68
2023-01-03T01:17:01.581Z,13.95
2023-01-03T01:19:35.368Z,14.50
2023-01-03T01:22:03.336Z,15.27
2023-01-03T01:24:31.590Z,13.20
2023-01-03T01:27:00.461Z,12.02
2023-01-03T01:29:28.493Z,14.57
2023-01-03T01:31:56.301Z,12.32
2023-01-03T01:34:24.152Z,11.20
2023-01-03T01:36:51.959Z,16.27
2023-01-03T01:39:25.718Z,18.63
2023-01-03T01:42:24.016Z,15.13
2023-01-03T01:45:01.484Z,17.52
2023-01-03T01:47:51.484Z,15.68
2023-01-03T01:50:25.538Z,11.93
2023-01-03T01:53:05.555Z,11.98
2023-01-03T01:55:52.011Z,15.48
2023-01-03T01:58:22.837Z,13.00
2023-01-03T02:00:50.644Z,12.45
2023-01-03T02:03:18.415Z,11.98
2023-01-03T02:05:51.637Z,11.70
2023-01-03T02:08:19.965Z,13.60
2023-01-03T02:11:15.465Z,10.65
2023-01-03T02:13:52.740Z,12.40
2023-01-03T02:19:09.377Z,12.82
2023-01-03T02:22:03.343Z,11.27
2023-01-03T02:24:53.364Z,16.13
2023-01-03T02:27:36.306Z,13.57
2023-01-03T02:30:47.611Z,9.65
2023-01-03T02:33:21.410Z,13.32
2023-01-03T02:36:00.673Z,15.85
2023-01-03T02:38:53.236Z,10.40
2023-01-03T02:41:32.368Z,13.60
2023-01-03T02:44:24.711Z,14.82
2023-01-03T02:46:59.253Z,10.85
2023-01-03T02:49:42.635Z,11.95
2023-01-03T02:52:18.379Z,14.18
2023-01-03T02:55:10.284Z,10.77
2023-01-03T02:57:43.936Z,14.52
2023-01-03T03:00:15.666Z,9.35
2023-01-03T03:02:52.296Z,14.02
2023-01-03T03:05:28.289Z,11.60
2023-01-03T03:07:56.107Z,13.82
2023-01-03T03:10:43.257Z,12.32
2023-01-03T03:13:21.545Z,10.88
2023-01-03T03:15:58.336Z,10.88
2023-01-03T03:18:56.759Z,9.52
2023-01-03T03:24:39.612Z,10.32
2023-01-03T03:27:30.327Z,7.78
2023-01-03T03:30:00.976Z,10.18
2023-01-03T03:32:32.280Z,10.70
2023-01-03T03:35:04.241Z,8.70
2023-01-03T03:37:35.985Z,10.27
2023-01-03T03:40:31.399Z,10.15
2023-01-03T03:43:34.663Z,7.93
2023-01-03T03:46:12.859Z,9.77
2023-01-03T03:49:15.474Z,9.52
2023-01-03T03:51:47.308Z,9.10
2023-01-03T03:54:19.519Z,8.43
2023-01-03T03:56:55.308Z,8.65
2023-01-03T03:59:25.116Z,7.25
2023-01-03T04:01:55.485Z,9.02
2023-01-03T04:04:28.683Z,9.20
2023-01-03T04:06:56.437Z,8.05
2023-01-03T04:09:24.153Z,7.82
2023-01-03T04:11:52.046Z,9.52
2023-01-03T04:14:21.012Z,8.90
2023-01-03T04:16:48.982Z,7.82
2023-01-03T04:19:16.916Z,7.43
2023-01-03T04:21:44.839Z,6.18
2023-01-03T04:24:12.672Z,7.40
2023-01-03T04:26:40.312Z,8.27
2023-01-03T04:29:07.970Z,8.73
2023-01-03T04:31:35.687Z,8.02
2023-01-03T04:34:03.409Z,7.18
2023-01-03T04:36:31.289Z,6.60
2023-01-03T04:39:00.753Z,6.88
2023-01-03T04:41:28.527Z,7.53
2023-01-03T04:44:02.279Z,6.72
2023-01-03T04:46:37.036Z,6.95
2023-01-03T04:49:06.601Z,7.63
2023-01-03T04:51:35.341Z,9.30
2023-01-03T04:54:04.556Z,7.55
2023-01-03T04:56:35.710Z,6.93
2023-01-03T04:59:04.874Z,8.88
2023-01-03T05:01:32.761Z,6.63
2023-01-03T05:04:02.118Z,7.18
2023-01-03T05:06:30.256Z,9.27
2023-01-03T05:08:58.124Z,6.22
2023-01-03T05:11:25.966Z,6.95
2023-01-03T05:13:53.668Z,7.38
2023-01-03T05:16:21.548Z,10.73
2023-01-03T05:18:51.457Z,8.00
2023-01-03T05:21:44.374Z,7.10
2023-01-03T05:24:31.412Z,6.13
2023-01-03T05:27:01.728Z,7.43
2023-01-03T05:29:30.212Z,6.85
2023-01-03T05:31:58.080Z,7.78
2023-01-03T05:34:26.246Z,6.28
2023-01-03T05:36:54.051Z,7.55
2023-01-03T05:39:21.721Z,7.63
2023-01-03T05:42:01.369Z,8.25
2023-01-03T05:44:32.030Z,7.35
2023-01-03T05:47:01.409Z,7.07
2023-01-03T05:49:29.639Z,10.52
2023-01-03T05:51:57.697Z,11.35
2023-01-03T05:54:27.074Z,8.63
2023-01-03T05:56:55.061Z,10.27
2023-01-03T05:59:22.967Z,11.32
2023-01-03T06:01:51.155Z,11.00
2023-01-03T06:04:19.290Z,11.93
2023-01-03T06:06:48.373Z,11.45
2023-01-03T06:09:16.825Z,9.77
2023-01-03T06:11:44.654Z,10.80
2023-01-03T06:14:12.471Z,12.07
2023-01-03T06:16:58.917Z,11.77
2023-01-03T06:19:27.005Z,12.23
2023-01-03T06:21:54.761Z,11.77
2023-01-03T06:24:22.719Z,16.92
2023-01-03T06:26:50.499Z,14.43
2023-01-03T06:29:18.324Z,12.77
2023-01-03T06:31:46.147Z,11.27
2023-01-03T06:34:18.062Z,14.25
2023-01-03T06:36:45.801Z,10.23
2023-01-03T06:39:13.812Z,13.38
2023-01-03T06:41:41.712Z,10.55
2023-01-03T06:44:11.491Z,11.50
2023-01-03T06:46:57.692Z,10.98
2023-01-03T06:49:44.126Z,7.60
2023-01-03T06:52:34.594Z,8.20
2023-01-03T06:55:02.920Z,8.68
2023-01-03T06:57:30.639Z,9.52
2023-01-03T06:59:58.414Z,10.20
2023-01-03T07:02:26.460Z,11.10
2023-01-03T07:04:54.357Z,8.88
2023-01-03T07:07:22.343Z,7.57
2023-01-03T07:09:50.045Z,14.90
2023-01-03T07:12:38.729Z,8.57
2023-01-03T07:15:06.940Z,11.82
2023-01-03T07:17:34.633Z,7.55
2023-01-03T07:20:02.672Z,9.68
2023-01-03T07:22:31.188Z,7.20
2023-01-03T07:24:58.994Z,11.05
2023-01-03T07:27:26.838Z,8.32
2023-01-03T07:29:54.604Z,10.00
2023-01-03T07:32:22.551Z,9.73
2023-01-03T07:34:51.545Z,8.52
2023-01-03T07:37:19.246Z,14.80
2023-01-03T07:39:47.007Z,10.80
2023-01-03T07:42:33.404Z,8.35
2023-01-03T07:45:01.123Z,12.85
2023-01-03T07:47:28.962Z,10.48
2023-01-03T07:49:56.726Z,12.48
2023-01-03T07:52:24.446Z,11.18
2023-01-03T07:54:52.111Z,12.10
2023-01-03T07:57:20.215Z,11.27
2023-01-03T07:59:47.963Z,11.35
2023-01-03T08:02:19.760Z,12.48
2023-01-03T08:04:48.140Z,13.13
2023-01-03T08:07:16.294Z,14.20
2023-01-03T08:10:02.357Z,16.50
2023-01-03T08:12:48.497Z,17.30
2023-01-03T08:15:16.654Z,16.33
2023-01-03T08:17:44.432Z,14.00
2023-01-03T08:20:12.110Z,14.07
2023-01-03T08:22:39.823Z,14.02
2023-01-03T08:25:07.952Z,12.25
2023-01-03T08:27:35.794Z,16.90
2023-01-03T08:30:04.135Z,12.82
2023-01-03T08:32:33.811Z,18.30
2023-01-03T08:35:01.804Z,18.33
2023-01-03T08:37:29.497Z,14.95
2023-01-03T08:40:01.667Z,16.48
2023-01-03T08:42:29.966Z,14.05
2023-01-03T08:45:02.954Z,12.23
2023-01-03T08:47:31.760Z,10.85
2023-01-03T08:50:01.901Z,14.90
2023-01-03T08:52:34.860Z,16.50
2023-01-03T08:55:03.911Z,13.50
2023-01-03T08:57:31.938Z,12.57
2023-01-03T08:59:59.826Z,13.77
2023-01-03T09:02:27.721Z,13.23
2023-01-03T09:04:55.654Z,12.52
2023-01-03T09:07:23.552Z,11.55
2023-01-03T09:09:51.179Z,11.77
2023-01-03T09:12:18.981Z,10.05
2023-01-03T09:14:46.772Z,14.50
2023-01-03T09:17:14.696Z,12.50
2023-01-03T09:19:42.499Z,13.88
2023-01-03T09:22:10.296Z,13.02
2023-01-03T09:24:38.026Z,13.73
2023-01-03T09:27:05.722Z,11.68
2023-01-03T09:29:33.552Z,13.77
2023-01-03T09:32:03.766Z,12.00
2023-01-03T09:34:31.707Z,11.05
2023-01-03T09:36:59.585Z,13.20
2023-01-03T09:39:27.361Z,11.43
2023-01-03T09:42:13.559Z,9.90
2023-01-03T09:44:41.531Z,17.77
2023-01-03T09:47:18.684Z,14.43
2023-01-03T09:52:53.179Z,14.35
2023-01-03T09:55:55.436Z,14.20
2023-01-03T09:58:41.694Z,23.10
2023-01-03T10:01:46.917Z,16.65
2023-01-03T10:04:26.899Z,20.98
2023-01-03T10:07:14.587Z,22.27
2023-01-03T10:12:35.341Z,19.23
2023-01-03T10:15:24.727Z,15.23
2023-01-03T10:18:08.540Z,21.88
2023-01-03T10:20:53.907Z,37.50
2023-01-03T10:23:21.978Z,30.45
2023-01-03T10:25:49.726Z,19.45
2023-01-03T10:28:28.376Z,49.70
2023-01-03T10:31:07.612Z,21.05
2023-01-03T10:33:47.732Z,21.77
2023-01-03T10:36:20.939Z,16.77
2023-01-03T10:39:02.059Z,18.10
2023-01-03T10:41:51.849Z,18.20
2023-01-03T10:44:29.290Z,23.25
2023-01-03T10:47:00.491Z,19.00
2023-01-03T10:49:31.799Z,24.75
2023-01-03T10:52:16.886Z,17.35
2023-01-03T10:54:48.135Z,19.90
2023-01-03T10:57:44.426Z,25.67
2023-01-03T11:00:33.966Z,19.45
2023-01-03T11:03:22.676Z,20.08
2023-01-03T11:05:56.787Z,21.30
2023-01-03T11:08:40.721Z,21.63
2023-01-03T11:11:31.843Z,17.92
2023-01-03T11:14:28.186Z,17.58
2023-01-03T11:17:03.030Z,19.73
2023-01-03T11:19:33.395Z,18.58
2023-01-03T11:22:06.841Z,19.17
2023-01-03T11:24:46.708Z,19.00
2023-01-03T11:27:17.290Z,22.80
2023-01-03T11:30:06.622Z,27.40
2023-01-03T11:32:45.210Z,20.35
2023-01-03T11:35:31.541Z,17.85
2023-01-03T11:38:08.446Z,18.63
2023-01-03T11:40:57.526Z,20.23
2023-01-03T11:43:38.778Z,22.40
2023-01-03T11:46:34.402Z,27.85
2023-01-03T11:49:13.332Z,17.92
2023-01-03T11:52:22.867Z,26.48
2023-01-03T11:55:13.445Z,22.08
2023-01-03T11:58:07.645Z,22.75
2023-01-03T12:00:49.330Z,22.00
2023-01-03T12:03:29.394Z,22.35
2023-01-03T12:06:26.735Z,21.27
2023-01-03T12:08:56.592Z,22.77
2023-01-03T12:11:30.250Z,19.67
2023-01-03T12:14:27.313Z,22.42
2023-01-03T12:17:03.650Z,18.02
2023-01-03T12:19:43.762Z,23.87
2023-01-03T12:22:23.972Z,19.45
2023-01-03T12:25:07.793Z,19.98
2023-01-03T12:27:42.351Z,15.95
2023-01-03T12:30:31.963Z,15.73
2023-01-03T12:33:16.388Z,18.60
2023-01-03T12:35:49.940Z,16.27
2023-01-03T12:38:25.020Z,13.82
2023-01-03T12:41:25.972Z,13.32
2023-01-03T12:44:18.167Z,10.88
2023-01-03T12:46:50.896Z,12.52
2023-01-03T12:49:35.153Z,30.70
2023-01-03T12:52:02.835Z,36.58
2023-01-03T12:54:52.687Z,57.80
2023-01-03T12:57:39.109Z,75.88
2023-01-03T13:00:25.931Z,125.57
2023-01-03T13:03:26.350Z,189.10
2023-01-03T13:06:20.664Z,154.20
2023-01-03T13:09:01.715Z,126.90
2023-01-03T13:11:36.232Z,79.80
2023-01-03T13:14:16.130Z,66.35
2023-01-03T13:16:49.268Z,84.43
2023-01-03T13:19:20.320Z,90.28
2023-01-03T13:22:03.655Z,76.15
2023-01-03T13:24:52.500Z,65.05
2023-01-03T13:27:20.809Z,56.03
2023-01-03T13:29:51.610Z,42.47
2023-01-03T13:32:22.476Z,34.50
2023-01-03T13:34:59.807Z,31.15
2023-01-03T13:37:48.196Z,40.67
2023-01-03T13:40:22.214Z,44.08
2023-01-03T13:43:02.664Z,31.33
2023-01-03T13:45:30.467Z,31.73
2023-01-03T13:48:08.798Z,27.30
2023-01-03T13:50:38.227Z,28.98
2023-01-03T13:53:12.200Z,25.98
2023-01-03T13:55:59.719Z,22.88
2023-01-03T13:58:48.846Z,25.83
2023-01-03T14:01:42.265Z,22.65
2023-01-03T14:04:28.993Z,32.45
2023-01-03T14:07:06.001Z,25.00
2023-01-03T14:12:26.870Z,28.33
2023-01-03T14:14:57.910Z,30.58
2023-01-03T14:17:36.606Z,24.38
2023-01-03T14:20:10.124Z,25.23
2023-01-03T14:22:48.603Z,30.15
2023-01-03T14:25:37.998Z,26.42
2023-01-03T14:28:33.073Z,21.48
2023-01-03T14:31:09.246Z,23.00
2023-01-03T14:33:44.148Z,26.47
2023-01-03T14:36:17.704Z,29.85
2023-01-03T14:38:51.220Z,22.50
2023-01-03T14:41:35.533Z,21.77
2023-01-03T14:44:14.683Z,39.40
2023-01-03T14:46:53.584Z,43.15
2023-01-03T14:49:41.761Z,35.45
2023-01-03T14:52:37.392Z,29.17
2023-01-03T14:55:17.598Z,28.67
2023-01-03T14:57:49.858Z,21.48
2023-01-03T15:00:32.910Z,18.98
2023-01-03T15:03:03.788Z,18.15
2023-01-03T15:05:38.669Z,14.48
2023-01-03T15:08:16.135Z,11.05
2023-01-03T15:10:55.830Z,11.48
2023-01-03T15:13:30.091Z,10.25
2023-01-03T15:16:00.759Z,8.52
2023-01-03T15:18:32.360Z,9.57
2023-01-03T15:21:02.147Z,9.85
2023-01-03T15:23:37.716Z,10.57
2023-01-03T15:26:07.331Z,9.50
2023-01-03T15:28:51.003Z,9.02
2023-01-03T15:31:30.966Z,9.43
2023-01-03T15:34:02.060Z,9.10
2023-01-03T15:36:32.565Z,8.68
2023-01-03T15:39:00.519Z,9.10
2023-01-03T15:42:00.148Z,11.35
2023-01-03T15:44:39.679Z,13.07
2023-01-03T15:47:08.830Z,12.35
2023-01-03T15:49:42.369Z,11.50
2023-01-03T15:52:14.710Z,13.52
2023-01-03T15:54:44.966Z,13.25
2023-01-03T15:57:21.221Z,12.27
2023-01-03T16:00:02.164Z,13.50
2023-01-03T16:02:32.867Z,12.77
2023-01-03T16:05:02.087Z,14.35
2023-01-03T16:07:29.979Z,12.35
2023-01-03T16:09:57.667Z,10.60
2023-01-03T16:12:36.589Z,14.23
2023-01-03T16:15:08.868Z,15.07
2023-01-03T16:17:42.978Z,16.42
2023-01-03T16:20:18.127Z,10.82
2023-01-03T16:23:00.375Z,17.30
2023-01-03T16:25:28.892Z,17.98
2023-01-03T16:27:56.772Z,16.88
2023-01-03T16:30:24.711Z,16.25
2023-01-03T16:32:52.576Z,16.35
2023-01-03T16:35:21.003Z,13.40
2023-01-03T16:37:48.733Z,12.68
2023-01-03T16:40:19.340Z,11.68
2023-01-03T16:42:48.264Z,13.30
2023-01-03T16:45:17.578Z,11.45
2023-01-03T16:47:53.459Z,10.63
2023-01-03T16:50:21.335Z,13.40
2023-01-03T16:52:53.642Z,10.88
2023-01-03T16:55:32.473Z,16.45
2023-01-03T16:58:00.637Z,11.50
2023-01-03T17:00:34.831Z,13.45
2023-01-03T17:03:03.053Z,12.38
2023-01-03T17:05:37.559Z,13.98
2023-01-03T17:08:20.635Z,13.52
2023-01-03T17:10:51.865Z,12.00
2023-01-03T17:13:30.188Z,10.10
2023-01-03T17:15:59.203Z,11.73
2023-01-03T17:18:30.532Z,11.15
2023-01-03T17:21:01.917Z,13.93
2023-01-03T17:23:32.601Z,11.93
2023-01-03T17:26:01.732Z,13.18
2023-01-03T17:28:30.198Z,11.02
2023-01-03T17:30:57.946Z,13.52
2023-01-03T17:33:31.939Z,9.20
2023-01-03T17:36:01.737Z,10.18
2023-01-03T17:38:32.150Z,11.70
2023-01-03T17:40:59.931Z,8.90
2023-01-03T17:43:28.496Z,9.70
2023-01-03T17:46:22.889Z,9.15
2023-01-03T17:49:11.523Z,9.70
2023-01-03T17:51:40.392Z,7.85
2023-01-03T17:54:09.953Z,8.15
2023-01-03T17:56:38.058Z,7.72
2023-01-03T17:59:05.909Z,8.80
2023-01-03T18:01:34.384Z,7.65
2023-01-03T18:04:02.382Z,7.15
2023-01-03T18:06:30.384Z,8.60
2023-01-03T18:08:59.807Z,9.57
2023-01-03T18:11:27.661Z,8.65
2023-01-03T18:13:55.602Z,9.07
2023-01-03T18:16:23.921Z,11.80
2023-01-03T18:18:53.036Z,8.07
2023-01-03T18:21:30.246Z,11.98
2023-01-03T18:24:01.465Z,10.70
2023-01-03T18:26:35.624Z,13.15
2023-01-03T18:29:04.873Z,18.58
2023-01-03T18:31:33.155Z,17.00
2023-01-03T18:34:04.827Z,13.25
2023-01-03T18:36:44.092Z,12.70
2023-01-03T18:39:19.947Z,11.43
2023-01-03T18:41:47.802Z,9.77
2023-01-03T18:44:24.136Z,10.63
2023-01-03T18:46:52.705Z,11.17
2023-01-03T18:49:20.546Z,11.80
2023-01-03T18:51:53.092Z,9.38
2023-01-03T18:54:21.081Z,9.55
2023-01-03T18:56:48.916Z,11.32
2023-01-03T18:59:21.691Z,7.88
2023-01-03T19:01:49.612Z,8.90
2023-01-03T19:04:17.672Z,9.65
2023-01-03T19:06:49.660Z,9.05
2023-01-03T19:09:25.581Z,10.38
2023-01-03T19:11:54.753Z,9.95
2023-01-03T19:14:23.996Z,9.77
2023-01-03T19:16:52.101Z,12.90
2023-01-03T19:19:22.205Z,35.28
2023-01-03T19:21:50.599Z,26.98
2023-01-03T19:24:38.426Z,19.85
2023-01-03T19:27:21.411Z,15.18
2023-01-03T19:29:53.953Z,25.27
2023-01-03T19:32:28.207Z,29.75
2023-01-03T19:34:56.349Z,26.48
2023-01-03T19:37:23.975Z,32.85
2023-01-03T19:39:51.693Z,24.27
2023-01-03T19:42:40.175Z,16.08
2023-01-03T19:45:17.701Z,16.00
2023-01-03T19:47:45.492Z,11.10
2023-01-03T19:50:25.335Z,13.68
2023-01-03T19:52:53.874Z,15.55
2023-01-03T19:55:33.496Z,14.45
2023-01-03T19:58:05.992Z,12.02
2023-01-03T20:00:33.868Z,11.75
2023-01-03T20:03:05.496Z,11.80
2023-01-03T20:05:35.684Z,12.38
2023-01-03T20:08:12.257Z,11.40
2023-01-03T20:10:43.272Z,9.32
2023-01-03T20:13:19.316Z,11.45
2023-01-03T20:15:48.928Z,10.15
2023-01-03T20:18:41.582Z,10.20
2023-01-03T20:21:22.585Z,9.90
2023-01-03T20:23:54.602Z,14.35
2023-01-03T20:26:25.663Z,12.35
2023-01-03T20:28:55.304Z,13.77
2023-01-03T20:31:23.728Z,14.93
2023-01-03T20:33:52.491Z,13.52
2023-01-03T20:36:26.000Z,14.00
2023-01-03T20:38:56.236Z,14.40
2023-01-03T20:41:36.568Z,19.35
2023-01-03T20:44:08.212Z,13.88
2023-01-03T20:46:36.369Z,15.52
2023-01-03T20:49:06.941Z,12.70
2023-01-03T20:51:35.176Z,14.00
2023-01-03T20:54:05.476Z,16.05
2023-01-03T20:56:33.523Z,13.30
2023-01-03T20:59:01.602Z,15.70
2023-01-03T21:01:29.621Z,14.68
2023-01-03T21:03:58.058Z,15.40
2023-01-03T21:06:29.664Z,14.73
2023-01-03T21:08:59.334Z,12.90
2023-01-03T21:11:32.531Z,11.52
2023-01-03T21:14:01.570Z,11.30
2023-01-03T21:16:44.282Z,12.25
2023-01-03T21:19:23.162Z,11.82
2023-01-03T21:21:53.850Z,12.35
2023-01-03T21:24:25.421Z,10.32
2023-01-03T21:26:53.219Z,10.75
2023-01-03T21:29:22.199Z,11.88
2023-01-03T21:31:50.095Z,9.90
2023-01-03T21:34:20.625Z,10.05
2023-01-03T21:36:48.980Z,10.65
2023-01-03T21:39:17.007Z,12.02
2023-01-03T21:42:03.787Z,10.32
2023-01-03T21:44:31.516Z,10.25
2023-01-03T21:46:59.394Z,11.45
2023-01-03T21:49:27.587Z,12.52
2023-01-03T21:51:55.592Z,17.50
2023-01-03T21:54:23.463Z,18.30
2023-01-03T21:56:51.386Z,16.40
2023-01-03T21:59:19.377Z,21.25
2023-01-03T22:02:06.643Z,17.88
2023-01-03T22:04:34.925Z,13.15
2023-01-03T22:07:02.753Z,12.20
2023-01-03T22:09:52.261Z,12.65
2023-01-03T22:12:22.483Z,12.68
2023-01-03T22:14:50.286Z,14.98
2023-01-03T22:17:18.136Z,13.63
2023-01-03T22:19:45.881Z,13.18
2023-01-03T22:22:13.938Z,10.98
2023-01-03T22:24:41.950Z,11.85
2023-01-03T22:27:09.740Z,11.63
2023-01-03T22:29:37.536Z,10.00
2023-01-03T22:32:05.760Z,10.02
2023-01-03T22:34:34.320Z,11.48
2023-01-03T22:37:02.194Z,12.15
2023-01-03T22:39:29.967Z,11.50
2023-01-03T22:41:57.667Z,12.45
2023-01-03T22:44:25.509Z,12.95
2023-01-03T22:46:53.278Z,12.02
2023-01-03T22:49:21.280Z,10.63
2023-01-03T22:51:48.966Z,13.20
2023-01-03T22:54:16.774Z,11.32
2023-01-03T22:56:44.752Z,9.98
2023-01-03T22:59:12.862Z,12.52
2023-01-03T23:01:44.220Z,9.80
2023-01-03T23:04:12.648Z,10.95
2023-01-03T23:06:47.486Z,10.70
2023-01-03T23:09:15.716Z,14.05
2023-01-03T23:12:01.968Z,10.20
2023-01-03T23:14:30.917Z,10.82
2023-01-03T23:17:18.927Z,9.80
2023-01-03T23:19:46.845Z,14.88
2023-01-03T23:22:14.872Z,9.50
2023-01-03T23:24:42.615Z,9.32
2023-01-03T23:27:10.475Z,9.23
2023-01-03T23:29:38.398Z,9.82
2023-01-03T23:32:06.460Z,10.93
2023-01-03T23:34:34.418Z,10.90
2023-01-03T23:37:02.248Z,10.30
2023-01-03T23:39:29.912Z,8.48
2023-01-03T23:41:57.728Z,10.02
2023-01-03T23:44:26.874Z,9.55
2023-01-03T23:46:54.662Z,9.23
2023-01-03T23:49:22.472Z,9.95
2023-01-03T23:51:50.247Z,9.52
2023-01-03T23:54:18.238Z,11.40
2023-01-03T23:56:46.124Z,9.90
2023-01-03T23:59:14.065Z,9.15
